Time;durP1;ratioP1;P1;durP2;ratioP2;P2;SDS_P1;SDS_P2;PMS_P1;PMS_P2;Temp;Humidity;BMP_temperature;BMP_pressure;BME280_temperature;BME280_humidity;BME280_pressure;Samples;Min_cycle;Max_cycle;Signal;HPM_P1;HPM_P2
2020/12/19 00:09:13;;;;;;;15.93;9.88;;;20.20;51.60;;;;;;20995928;28;20064;-16
2020/12/19 00:19:14;;;;;;;14.68;9.57;;;20.20;51.40;;;;;;20995046;28;20061;-18
2020/12/19 00:29:14;;;;;;;14.80;8.27;;;20.20;51.20;;;;;;20988849;28;20078;-17
2020/12/19 00:39:15;;;;;;;12.13;8.40;;;20.10;51.30;;;;;;21018814;28;20123;-17
2020/12/19 00:49:16;;;;;;;10.70;7.47;;;20.10;50.70;;;;;;21060270;28;20519;-17
2020/12/19 00:59:16;;;;;;;10.85;7.20;;;20.00;50.80;;;;;;21064515;28;20024;-17
2020/12/19 01:09:17;;;;;;;11.13;7.20;;;19.90;50.80;;;;;;21063197;28;20030;-17
2020/12/19 01:19:17;;;;;;;8.38;5.63;;;19.90;51.00;;;;;;21069885;28;20061;-17
2020/12/19 01:29:18;;;;;;;10.13;5.97;;;19.90;50.70;;;;;;21069653;28;20059;-17
2020/12/19 01:39:19;;;;;;;8.10;5.77;;;19.80;50.60;;;;;;21068914;28;20392;-17
2020/12/19 01:49:24;;;;;;;12.65;6.13;;;19.80;50.60;;;;;;21028962;22;20491;-16
2020/12/19 01:59:27;;;;;;;8.15;5.10;;;19.70;50.50;;;;;;20902551;28;20039;-17
2020/12/19 02:09:38;;;;;;;9.80;4.95;;;19.70;50.60;;;;;;20906101;28;20532;-18
2020/12/19 02:19:39;;;;;;;6.07;4.05;;;19.70;50.60;;;;;;20906345;28;20029;-15
2020/12/19 02:29:39;;;;;;;6.60;3.88;;;19.60;50.60;;;;;;20910930;28;20029;-15
2020/12/19 02:39:40;;;;;;;6.03;4.10;;;19.60;50.50;;;;;;20916675;28;20650;-15
2020/12/19 02:49:40;;;;;;;8.13;3.95;;;19.60;50.50;;;;;;20918221;28;20032;-17
2020/12/19 02:59:41;;;;;;;5.20;3.50;;;19.60;50.40;;;;;;20925377;28;20029;-17
2020/12/19 03:09:41;;;;;;;7.85;3.50;;;19.50;50.30;;;;;;20926271;28;20036;-17
2020/12/19 03:19:42;;;;;;;6.00;3.53;;;19.50;50.20;;;;;;20915299;28;20047;-17
2020/12/19 03:29:42;;;;;;;6.65;2.95;;;19.40;50.20;;;;;;20917673;28;20389;-18
2020/12/19 03:39:43;;;;;;;4.80;3.00;;;19.40;50.30;;;;;;20914469;28;20400;-17
2020/12/19 03:49:43;;;;;;;6.65;2.65;;;19.40;50.30;;;;;;20915573;28;20055;-17
2020/12/19 03:59:44;;;;;;;4.35;2.55;;;19.30;50.20;;;;;;20924627;28;20103;-15
2020/12/19 04:09:47;;;;;;;3.70;2.50;;;19.30;50.10;;;;;;20920824;28;20033;-17
2020/12/19 04:19:48;;;;;;;5.93;4.60;;;19.30;50.20;;;;;;20916794;28;20025;-17
2020/12/19 04:29:48;;;;;;;3.57;2.80;;;19.30;50.00;;;;;;20914524;28;20137;-17
2020/12/19 04:39:49;;;;;;;6.47;3.47;;;19.20;50.00;;;;;;20907550;28;20478;-16
2020/12/19 04:49:50;;;;;;;3.13;2.50;;;19.20;49.90;;;;;;20906259;28;20116;-15
2020/12/19 04:59:50;;;;;;;5.28;2.60;;;19.20;50.00;;;;;;20916838;28;20060;-16
2020/12/19 05:09:52;;;;;;;2.92;1.92;;;19.10;49.90;;;;;;20898470;28;20068;-17
2020/12/19 05:19:53;;;;;;;5.35;2.60;;;19.10;49.70;;;;;;20908208;28;20040;-17
2020/12/19 05:29:56;;;;;;;3.03;2.53;;;19.10;49.80;;;;;;20904150;28;20037;-17
2020/12/19 05:39:56;;;;;;;3.97;2.53;;;19.10;49.60;;;;;;20922544;28;20025;-16
2020/12/19 05:49:57;;;;;;;4.18;2.17;;;19.10;49.70;;;;;;20906340;28;20041;-16
2020/12/19 05:59:57;;;;;;;3.53;2.75;;;19.10;49.70;;;;;;20921757;28;20033;-16
2020/12/19 06:09:58;;;;;;;3.92;2.35;;;19.00;49.60;;;;;;20930372;28;20037;-17
2020/12/19 06:20:02;;;;;;;3.35;2.15;;;19.00;49.50;;;;;;20920418;28;20055;-17
2020/12/19 06:30:03;;;;;;;3.85;2.33;;;19.00;49.60;;;;;;20917930;28;20112;-17
2020/12/19 06:40:07;;;;;;;3.92;2.83;;;18.90;49.50;;;;;;20918556;28;20110;-16
2020/12/19 06:50:07;;;;;;;3.63;2.65;;;18.90;49.40;;;;;;20918727;28;20060;-17
2020/12/19 07:00:21;;;;;;;3.28;2.28;;;18.90;49.40;;;;;;20920116;28;20029;-17
2020/12/19 07:10:35;;;;;;;3.53;2.60;;;18.90;49.20;;;;;;20916784;28;20049;-16
2020/12/19 07:20:36;;;;;;;3.80;2.22;;;18.90;49.30;;;;;;20922273;28;20081;-16
2020/12/19 07:30:40;;;;;;;3.00;2.28;;;19.30;48.70;;;;;;20932339;28;20021;-15
2020/12/19 07:40:42;;;;;;;2.72;1.73;;;20.00;47.00;;;;;;20930225;28;20107;-16
2020/12/19 07:50:42;;;;;;;4.85;1.85;;;20.70;45.50;;;;;;20887429;23;20033;-17
2020/12/19 08:00:43;;;;;;;2.25;1.30;;;21.40;44.50;;;;;;21067818;28;20540;-17
2020/12/19 08:10:43;;;;;;;8.63;2.70;;;22.00;43.40;;;;;;21081973;28;20028;-16
2020/12/19 08:20:46;;;;;;;4.03;1.95;;;22.60;42.60;;;;;;21072417;28;20445;-16
2020/12/19 08:30:47;;;;;;;5.97;1.77;;;23.00;41.70;;;;;;21070861;28;20069;-16
2020/12/19 08:41:02;;;;;;;7.40;2.53;;;23.40;41.20;;;;;;21053097;28;20119;-17
2020/12/19 08:51:09;;;;;;;9.70;2.42;;;23.80;41.00;;;;;;21047041;28;20135;-17
2020/12/19 09:01:14;;;;;;;10.30;1.92;;;23.70;41.20;;;;;;21040070;28;20028;-17
2020/12/19 09:11:25;;;;;;;11.50;2.30;;;23.40;42.20;;;;;;21033967;28;20040;-16
2020/12/19 09:21:26;;;;;;;10.30;3.95;;;23.20;42.40;;;;;;21028936;28;20480;-16
2020/12/19 09:31:28;;;;;;;16.92;4.32;;;23.00;42.90;;;;;;21002257;28;20032;-17
2020/12/19 09:41:28;;;;;;;22.60;8.68;;;22.80;43.20;;;;;;21033074;28;20034;-17
2020/12/19 09:51:32;;;;;;;25.60;10.43;;;22.60;44.10;;;;;;21024208;28;20061;-17
2020/12/19 10:01:32;;;;;;;17.95;8.30;;;22.60;44.60;;;;;;21047738;28;20028;-17
2020/12/19 10:11:33;;;;;;;52.83;23.67;;;22.60;45.00;;;;;;21067366;28;20395;-16
2020/12/19 10:21:33;;;;;;;42.80;19.23;;;22.60;44.90;;;;;;21064864;28;20028;-17
2020/12/19 10:31:34;;;;;;;34.42;15.38;;;22.50;45.70;;;;;;21058739;28;20066;-17
2020/12/19 10:41:34;;;;;;;30.63;14.55;;;22.60;45.00;;;;;;21069645;28;20387;-16
2020/12/19 10:51:35;;;;;;;31.25;14.23;;;22.50;45.10;;;;;;21078825;28;20103;-16
2020/12/19 11:01:36;;;;;;;24.58;12.05;;;22.40;45.30;;;;;;21072489;28;20055;-16
2020/12/19 11:11:36;;;;;;;30.27;11.30;;;22.30;45.60;;;;;;21085692;28;20066;-16
2020/12/19 11:21:41;;;;;;;26.17;11.32;;;22.30;45.70;;;;;;21048521;28;20093;-17
2020/12/19 11:31:42;;;;;;;27.95;9.88;;;22.20;46.20;;;;;;21034798;28;20059;-16
2020/12/19 11:41:43;;;;;;;28.02;11.27;;;22.20;46.20;;;;;;21036255;28;20020;-16
2020/12/19 11:51:43;;;;;;;18.13;9.40;;;22.10;47.00;;;;;;21044611;28;20434;-16
2020/12/19 12:01:44;;;;;;;21.83;10.25;;;22.00;46.50;;;;;;21063718;28;20505;-16
2020/12/19 12:11:44;;;;;;;17.77;7.90;;;22.10;46.70;;;;;;21070995;28;20035;-16
2020/12/19 12:21:45;;;;;;;20.65;7.43;;;22.10;46.70;;;;;;21073598;28;20044;-16
2020/12/19 12:31:45;;;;;;;15.90;7.65;;;22.10;47.10;;;;;;21071208;28;20418;-15
2020/12/19 12:41:46;;;;;;;14.00;7.05;;;22.00;46.80;;;;;;21057701;28;20039;-16
2020/12/19 12:51:49;;;;;;;16.05;6.70;;;22.10;46.40;;;;;;21034948;28;20053;-16
2020/12/19 13:01:50;;;;;;;18.63;6.07;;;22.00;46.00;;;;;;21030256;28;20032;-15
2020/12/19 13:11:54;;;;;;;16.77;5.80;;;22.10;45.90;;;;;;21030374;28;20522;-14
2020/12/19 13:21:55;;;;;;;18.50;5.72;;;22.00;46.00;;;;;;21025212;28;20031;-17
2020/12/19 13:31:56;;;;;;;12.10;4.72;;;22.10;46.20;;;;;;21006337;28;20389;-16
2020/12/19 13:41:56;;;;;;;14.52;5.43;;;22.00;46.30;;;;;;21025834;28;20096;-17
2020/12/19 13:52:00;;;;;;;13.38;5.30;;;22.00;46.20;;;;;;21033232;28;20029;-16
2020/12/19 14:02:07;;;;;;;13.35;5.53;;;21.90;46.00;;;;;;20979682;23;20045;-15
2020/12/19 14:12:07;;;;;;;13.63;3.38;;;22.00;45.50;;;;;;20919631;28;20116;-15
2020/12/19 14:22:08;;;;;;;7.07;2.58;;;21.60;43.30;;;;;;20915452;28;20057;-15
2020/12/19 14:32:08;;;;;;;7.57;2.53;;;21.40;42.10;;;;;;20928304;28;20444;-15
2020/12/19 14:42:09;;;;;;;2.73;1.83;;;21.70;41.40;;;;;;20916462;28;20496;-15
2020/12/19 14:52:09;;;;;;;3.63;1.73;;;22.20;40.70;;;;;;20915723;28;20036;-16
2020/12/19 15:02:10;;;;;;;4.30;1.63;;;22.70;40.60;;;;;;20924949;28;20028;-16
2020/12/19 15:12:10;;;;;;;5.97;1.80;;;22.70;41.10;;;;;;20928952;28;20049;-14
2020/12/19 15:22:11;;;;;;;7.95;2.03;;;22.70;41.40;;;;;;20927171;28;20067;-14
2020/12/19 15:32:12;;;;;;;3.70;2.05;;;22.60;41.90;;;;;;20880797;28;20049;-14
2020/12/19 15:42:12;;;;;;;15.52;3.10;;;22.70;42.00;;;;;;20906621;28;20037;-14
2020/12/19 15:52:13;;;;;;;7.45;2.63;;;22.50;42.50;;;;;;20931059;28;20036;-14
2020/12/19 16:02:13;;;;;;;5.90;2.17;;;22.90;42.30;;;;;;20921428;28;20029;-16
2020/12/19 16:12:14;;;;;;;8.68;1.98;;;23.40;41.40;;;;;;20922952;28;20396;-16
2020/12/19 16:22:15;;;;;;;5.97;1.85;;;23.90;40.90;;;;;;20908106;28;20033;-16
2020/12/19 16:32:15;;;;;;;3.63;1.77;;;24.40;40.30;;;;;;20930744;28;20497;-15
2020/12/19 16:42:16;;;;;;;4.65;1.65;;;24.70;39.70;;;;;;20933113;28;20449;-15
2020/12/19 16:52:16;;;;;;;11.68;2.80;;;24.60;39.90;;;;;;20906645;28;20030;-16
2020/12/19 17:02:18;;;;;;;11.90;6.40;;;24.40;41.00;;;;;;20866124;28;20104;-17
2020/12/19 17:12:18;;;;;;;9.40;5.18;;;24.30;41.30;;;;;;20928322;28;20647;-17
2020/12/19 17:22:19;;;;;;;9.75;4.35;;;24.20;42.00;;;;;;20890862;28;20065;-16
2020/12/19 17:32:20;;;;;;;8.45;3.22;;;24.40;41.70;;;;;;20886512;28;20063;-17
2020/12/19 17:42:20;;;;;;;6.28;3.83;;;24.10;42.20;;;;;;20930707;28;20043;-17
2020/12/19 17:52:21;;;;;;;8.25;3.65;;;24.10;42.40;;;;;;20922311;28;20029;-16
2020/12/19 18:02:23;;;;;;;4.60;2.90;;;24.10;42.40;;;;;;20954156;28;20510;-15
2020/12/19 18:12:24;;;;;;;8.90;2.88;;;23.90;42.80;;;;;;20953234;28;20036;-15
2020/12/19 18:22:24;;;;;;;5.00;2.47;;;23.60;42.70;;;;;;20951227;28;20041;-16
2020/12/19 18:32:25;;;;;;;13.73;5.72;;;23.60;43.00;;;;;;20930129;28;20522;-15
2020/12/19 18:42:26;;;;;;;8.70;4.70;;;23.50;45.10;;;;;;20934923;28;20051;-15
2020/12/19 18:52:26;;;;;;;7.07;4.15;;;23.70;45.00;;;;;;20921025;28;20029;-15
2020/12/19 19:02:28;;;;;;;11.10;4.78;;;23.60;45.00;;;;;;20923070;28;20068;-15
2020/12/19 19:12:28;;;;;;;6.72;4.53;;;23.70;43.80;;;;;;20924292;28;20078;-15
2020/12/19 19:22:29;;;;;;;23.50;11.10;;;23.60;44.40;;;;;;20904046;28;20481;-16
2020/12/19 19:32:29;;;;;;;17.23;9.95;;;23.70;44.50;;;;;;20915328;28;20037;-16
2020/12/19 19:42:30;;;;;;;18.25;8.40;;;23.60;44.70;;;;;;20921510;28;20473;-16
2020/12/19 19:52:32;;;;;;;21.27;7.65;;;23.60;44.70;;;;;;20912196;28;20032;-15
2020/12/19 20:02:33;;;;;;;12.95;6.15;;;23.60;44.70;;;;;;20912188;28;20485;-15
2020/12/19 20:12:34;;;;;;;13.20;6.57;;;23.60;44.50;;;;;;20883856;28;20057;-16
2020/12/19 20:22:34;;;;;;;10.40;4.97;;;23.70;44.60;;;;;;20909986;28;20082;-16
2020/12/19 20:32:35;;;;;;;9.13;5.10;;;23.90;44.40;;;;;;20930026;28;20424;-16
2020/12/19 20:42:39;;;;;;;11.05;5.30;;;23.80;44.60;;;;;;20971327;28;20028;-15
2020/12/19 20:52:40;;;;;;;9.15;4.82;;;24.00;44.60;;;;;;20933674;28;20127;-14
2020/12/19 21:02:40;;;;;;;13.75;5.00;;;24.00;45.40;;;;;;20925552;28;20121;-15
2020/12/19 21:12:41;;;;;;;15.25;5.47;;;23.90;45.30;;;;;;20875004;28;20056;-18
2020/12/19 21:22:43;;;;;;;10.93;5.40;;;23.90;45.50;;;;;;20908482;28;20033;-15
2020/12/19 21:32:44;;;;;;;10.15;5.43;;;23.80;45.80;;;;;;20910039;28;20033;-15
2020/12/19 21:42:45;;;;;;;11.73;5.13;;;23.60;46.40;;;;;;20930537;28;20115;-15
2020/12/19 21:52:46;;;;;;;11.15;6.57;;;23.50;46.70;;;;;;20881483;28;20048;-15
2020/12/19 22:02:47;;;;;;;8.68;3.70;;;23.40;47.10;;;;;;20915367;28;20493;-15
2020/12/19 22:12:49;;;;;;;9.55;4.47;;;23.30;47.60;;;;;;20869014;28;20044;-15
2020/12/19 22:22:50;;;;;;;10.43;4.93;;;23.20;47.60;;;;;;20920519;28;20029;-15
2020/12/19 22:32:50;;;;;;;11.52;5.88;;;23.00;48.00;;;;;;20913093;28;20031;-16
2020/12/19 22:42:51;;;;;;;9.70;5.57;;;22.90;48.00;;;;;;20930239;28;20355;-15
2020/12/19 22:52:52;;;;;;;17.90;8.13;;;22.80;48.20;;;;;;20929898;28;20459;-16
2020/12/19 23:02:53;;;;;;;14.43;7.22;;;22.60;48.40;;;;;;20889807;28;20028;-15
2020/12/19 23:12:57;;;;;;;16.73;6.28;;;22.50;48.50;;;;;;20928998;28;20804;-17
2020/12/19 23:22:58;;;;;;;12.80;5.90;;;22.50;48.60;;;;;;20887386;28;20033;-17
2020/12/19 23:32:58;;;;;;;12.80;6.18;;;22.30;48.80;;;;;;20931919;28;20060;-16
2020/12/19 23:42:59;;;;;;;16.00;6.60;;;22.20;49.10;;;;;;20934612;28;20082;-16
2020/12/19 23:53:00;;;;;;;12.27;6.80;;;22.10;48.90;;;;;;20858482;28;20080;-16
